Date,TemperatureHighF,TemperatureAvgF,TemperatureLowF,DewpointHighF,DewpointAvgF,DewpointLowF,HumidityHigh,HumidityAvg,HumidityLow,PressureMaxIn,PressureMinIn,WindSpeedMaxMPH,WindSpeedAvgMPH,GustSpeedMaxMPH,PrecipitationSumIn
2012-3-30,80.2,73.6,67.8,68.0,64.8,62.4,85,74,65,29.77,29.67,9,2,9,0.00
2012-3-31,82.6,73.9,66.7,69.0,65.0,61.1,83,74,60,29.77,29.67,13,2,13,0.00
2012-4-1,85.6,77.0,69.4,68.3,65.8,63.0,81,69,55,29.71,29.56,22,5,23,0.00
2012-4-2,82.2,74.7,69.6,68.3,64.6,60.1,80,71,60,29.63,29.50,20,5,20,0.16
2012-4-3,78.4,69.4,64.2,69.0,62.9,58.9,85,80,72,29.75,29.60,18,2,18,0.00
2012-4-4,73.8,66.0,59.5,59.6,56.7,51.4,87,73,53,29.82,29.66,10,0,10,0.00
2012-4-5,75.6,67.2,59.5,55.8,52.7,49.6,72,60,48,29.98,29.70,6,0,6,0.00
2012-4-6,77.9,71.9,61.0,58.6,56.7,50.0,72,59,50,30.12,30.03,12,2,12,0.00
2012-4-7,82.8,72.2,62.4,64.3,59.2,53.1,75,64,53,30.26,30.09,13,2,13,0.00
2012-4-8,73.0,67.5,63.5,62.5,60.1,57.9,84,77,67,30.35,30.24,12,1,12,0.00
2012-4-9,75.6,66.8,61.0,65.3,60.2,56.3,86,80,67,30.29,30.12,71,2,86,0.00
2012-4-10,82.2,73.6,66.4,64.7,62.2,60.1,81,68,53,30.20,30.09,28,1,28,0.00
2012-4-11,82.6,73.6,67.3,65.8,61.9,58.9,76,67,51,30.20,30.08,19,2,19,0.00
2012-4-12,78.1,70.1,62.2,64.3,60.1,54.9,78,71,61,30.15,29.99,28,6,28,0.00
2012-4-13,79.3,72.8,66.7,66.6,63.3,59.8,81,72,62,30.07,29.93,21,4,28,0.00
2012-4-14,81.3,75.1,70.9,67.4,65.5,61.6,81,72,52,29.96,29.79,25,6,29,0.00
2012-4-15,75.0,70.0,63.3,67.6,59.3,51.0,80,69,50,30.00,29.71,32,3,109,0.00
2012-4-16,76.6,65.8,58.8,54.0,50.6,47.0,76,59,45,30.26,29.97,16,1,16,0.00
2012-4-17,80.8,67.6,57.2,56.5,52.1,47.6,74,59,39,30.33,30.22,14,1,14,0.00
2012-4-18,80.4,69.3,59.0,58.4,52.7,47.6,70,56,41,30.27,30.07,28,2,28,0.00
2012-4-19,83.1,71.9,61.0,58.1,53.2,47.9,63,52,42,30.08,29.82,22,4,22,0.00
2012-4-20,73.2,66.5,60.3,58.9,54.2,46.4,78,65,54,30.11,29.80,17,1,17,0.00
2012-4-21,69.6,59.1,53.4,46.6,44.5,43.1,69,59,42,30.15,30.07,6,0,6,0.00
2012-4-23,78.1,57.5,55.2,44.0,39.9,38.1,57,52,30,30.15,30.13,6,0,6,0.00
2012-4-24,96.8,74.6,51.3,59.5,50.3,39.8,70,45,27,30.14,29.90,19,4,19,0.00
2012-4-25,98.1,78.2,64.0,69.3,61.7,54.2,77,59,39,29.96,29.79,22,6,22,0.37
2012-4-26,99.7,81.1,67.8,70.6,65.1,60.7,79,60,39,29.92,29.83,22,5,22,0.00
2012-4-27,96.4,79.7,66.0,65.7,62.3,59.1,79,58,34,29.93,29.78,22,7,22,0.00
2012-4-28,96.1,79.0,68.2,67.1,62.3,59.7,76,59,38,29.96,29.85,24,7,24,0.00
2012-4-29,105.6,79.4,66.7,70.1,62.9,59.6,83,60,31,30.07,29.95,22,6,22,0.06
2012-4-30,90.3,79.0,71.2,70.4,66.7,62.9,83,67,50,30.08,29.94,23,6,23,0.00
2012-5-1,93.0,79.9,69.6,68.0,65.5,61.4,84,64,43,30.03,29.88,24,8,24,0.00
2012-5-2,93.2,80.3,71.2,69.3,65.8,62.6,81,63,45,30.00,29.88,18,6,18,0.00
2012-5-3,101.5,84.2,69.6,72.3,67.6,64.3,84,60,38,30.02,29.92,16,5,16,0.00
2012-5-4,100.0,83.8,71.8,73.6,69.0,65.6,82,63,42,30.02,29.90,14,5,17,0.00
2012-5-5,100.2,88.5,81.1,72.3,69.7,68.4,67,55,40,29.91,29.85,16,7,17,0.00
2012-5-6,98.2,83.4,73.8,70.6,67.6,63.2,82,61,38,29.98,29.84,19,5,19,0.00
2012-5-7,89.2,80.6,75.9,69.8,66.5,64.1,72,63,52,30.02,29.87,18,3,18,0.00
2012-5-8,77.2,71.9,70.0,65.9,62.1,58.6,79,71,65,30.10,30.00,16,3,17,0.77
2012-5-9,82.2,74.4,66.9,58.6,54.4,50.8,66,51,34,30.15,30.01,17,3,17,0.00
2012-5-10,82.2,75.6,67.6,56.2,53.0,50.4,58,46,34,30.05,29.90,19,4,19,0.00
2012-5-11,75.6,71.7,68.5,64.8,61.0,55.8,80,70,51,30.04,29.88,16,4,16,0.41
2012-5-12,70.7,69.1,66.9,61.3,60.2,58.7,80,73,67,30.23,30.04,12,2,13,0.00
2012-5-13,79.0,72.0,64.9,63.1,59.7,56.9,77,66,51,30.26,30.14,13,2,13,0.02
2012-5-14,82.8,75.1,67.5,61.4,58.7,56.3,70,58,44,30.20,30.07,11,2,12,0.00
2012-5-15,83.5,76.7,69.6,59.9,57.0,54.5,64,52,38,30.17,30.07,13,3,13,0.00
2012-5-16,87.6,78.8,69.4,60.4,57.4,53.3,66,49,33,30.15,30.03,11,2,11,0.00
2012-5-17,89.4,80.6,71.4,60.3,57.5,55.5,61,46,33,30.11,29.97,13,3,13,0.00
2012-5-18,88.9,81.0,72.3,62.9,59.1,56.8,64,48,37,30.03,29.90,21,6,21,0.00
2012-5-19,88.5,80.3,71.8,64.9,60.7,57.6,70,52,37,30.05,29.95,21,7,22,0.00
2012-5-20,89.8,81.9,74.5,64.7,60.8,57.1,62,50,34,30.24,30.03,14,4,15,0.00
2012-5-21,88.3,81.0,73.4,64.9,61.2,57.2,63,51,42,30.24,30.10,13,3,14,0.00
2012-5-22,91.6,82.7,73.2,64.5,59.8,53.8,52,46,40,30.14,29.88,12,4,14,0.00
2012-5-23,91.8,83.9,75.7,68.2,63.5,57.9,60,51,42,29.90,29.66,26,7,26,0.00
2012-5-24,91.9,83.7,76.6,70.9,67.3,63.8,68,58,48,29.80,29.67,25,9,27,0.00
2012-5-25,93.4,84.9,76.5,71.0,68.5,65.9,72,59,47,30.01,29.80,23,8,23,0.00
2012-5-26,91.2,84.2,78.3,69.8,67.4,62.6,71,58,43,30.11,29.98,24,7,24,0.00
2012-5-27,91.6,83.7,75.7,67.1,63.9,61.2,71,53,38,30.08,29.91,22,6,22,0.00
2012-5-28,93.4,84.1,74.5,70.4,66.1,62.0,71,56,46,30.09,29.85,15,5,17,0.27
2012-5-29,93.4,82.8,72.5,72.8,67.9,63.6,75,62,47,30.05,29.84,19,5,21,0.10
2012-5-30,87.1,78.9,70.9,69.2,64.1,59.0,79,61,45,30.07,29.77,43,6,111,0.63
2012-5-31,82.6,75.4,70.3,66.4,62.4,52.3,78,65,45,30.05,29.71,44,4,44,0.37
2012-6-1,84.6,76.0,66.9,59.0,54.5,50.2,58,48,39,30.11,29.95,13,4,13,0.00
2012-6-2,93.4,82.4,73.2,69.7,62.0,54.0,66,51,38,30.01,29.88,19,5,19,0.00
2012-6-3,93.2,85.5,77.9,72.3,68.1,63.7,71,57,43,29.98,29.87,21,6,21,0.00
2012-6-4,92.3,84.5,78.4,73.7,69.8,66.7,71,62,53,30.01,29.85,16,4,16,0.00
2012-6-5,94.3,86.5,77.2,71.0,68.1,65.2,68,55,44,29.94,29.78,16,3,16,0.00
2012-6-6,92.5,82.0,72.1,73.0,68.3,64.3,79,64,50,30.02,29.82,71,6,111,3.00
2012-6-7,75.9,73.5,71.4,67.0,65.4,63.5,79,76,69,30.09,29.95,110,4,110,0.43
2012-6-8,85.6,78.4,72.7,65.4,63.4,61.8,74,61,47,30.09,29.93,12,4,12,0.00
2012-6-9,91.4,82.2,74.5,69.8,66.1,62.6,71,59,47,29.96,29.79,18,4,18,0.00
2012-6-10,91.9,84.2,77.9,72.3,69.2,66.7,72,61,51,29.87,29.80,26,6,26,0.00
2012-6-11,94.6,87.5,80.1,74.8,72.3,70.3,74,61,49,30.02,29.83,86,7,86,0.00
2012-6-12,89.2,83.1,77.2,72.0,66.1,62.3,62,57,48,30.16,30.00,22,4,22,0.00
2012-6-13,88.0,80.1,74.1,73.0,67.5,63.7,73,66,54,30.16,29.93,71,5,71,0.14
2012-6-14,93.4,84.6,77.7,73.3,70.9,68.2,78,65,50,30.03,29.92,58,6,64,0.00
2012-6-15,90.5,84.9,75.7,72.6,70.8,66.4,82,64,52,30.08,29.96,86,6,86,0.08
2012-6-16,84.6,79.3,77.2,72.0,68.2,65.8,74,69,60,30.12,30.04,17,6,17,0.00
2012-6-17,90.7,86.4,82.8,71.5,68.6,67.7,61,56,51,29.99,29.90,12,5,12,0.00
2012-6-18,91.9,84.3,77.5,70.6,67.5,64.8,66,58,46,29.94,29.85,20,6,21,0.00
2012-6-19,91.2,82.5,77.5,72.3,69.4,66.9,75,65,52,30.01,29.91,112,8,112,0.06
2012-6-20,92.3,83.9,77.5,70.7,68.9,66.8,77,62,44,30.06,29.97,107,12,107,0.00
2012-6-21,92.1,84.7,77.7,70.9,68.3,64.5,73,59,46,30.14,29.99,36,4,36,0.00
2012-6-22,94.6,86.9,79.2,70.7,68.2,64.4,71,55,43,30.06,29.92,21,4,21,0.00
2012-6-23,95.7,89.0,82.2,70.6,67.6,64.2,64,50,37,30.02,29.93,17,4,17,0.00
2012-6-24,97.9,88.8,79.9,70.4,66.1,63.7,63,48,34,30.06,29.95,21,4,21,0.00
2012-6-25,99.3,91.0,81.7,69.0,66.7,63.8,59,46,36,30.02,29.86,36,5,36,0.00
2012-6-26,101.8,93.5,84.0,73.8,69.3,65.3,60,46,36,29.91,29.81,43,5,43,0.00
2012-6-27,99.3,91.9,83.5,72.3,67.1,59.2,62,46,31,30.01,29.88,13,5,14,0.00
2012-6-28,99.1,90.5,83.3,67.8,64.6,60.6,55,43,33,30.12,30.00,17,5,17,0.00
2012-6-29,96.6,89.8,82.9,70.6,67.4,65.0,63,49,38,30.10,29.94,21,6,21,0.00
2012-6-30,95.7,88.6,82.4,72.1,69.3,65.5,64,54,39,30.01,29.89,21,5,21,0.00
2012-7-1,91.4,84.1,79.5,72.4,68.9,66.8,71,61,49,30.08,29.99,43,6,43,0.06
2012-7-2,92.1,84.7,78.8,73.1,69.4,65.8,74,61,47,30.17,30.04,17,5,17,0.00
2012-7-3,95.4,87.2,79.7,69.7,67.0,62.7,69,53,36,30.13,29.98,18,6,18,0.00
2012-7-4,95.2,87.4,80.1,71.9,68.1,64.4,69,54,40,30.10,29.97,36,8,36,0.00
2012-7-5,96.6,88.7,81.0,71.6,67.8,64.5,67,51,39,30.12,30.00,36,5,36,0.00
2012-7-6,97.5,89.6,81.9,71.1,67.3,64.3,61,49,38,30.13,30.00,12,3,12,0.00
2012-7-7,96.6,88.1,82.2,71.6,68.3,65.3,64,52,41,30.12,30.03,30,3,30,0.06
2012-7-8,94.3,84.3,78.1,74.5,70.1,67.6,74,63,50,30.11,29.97,15,3,26,0.00
2012-7-9,93.4,84.8,79.9,73.7,70.7,68.0,72,64,48,30.06,29.91,22,4,22,0.00
2012-7-10,90.9,83.3,78.3,72.5,69.9,67.6,72,64,53,30.05,29.93,13,3,13,0.00
2012-7-11,91.8,81.6,77.2,71.0,68.3,66.9,73,65,48,30.03,29.96,11,3,12,0.04
2012-7-12,91.9,83.6,76.8,72.5,70.1,67.9,76,65,49,30.06,29.96,20,4,20,0.00
2012-7-13,92.8,85.4,79.2,72.8,69.9,67.9,76,61,47,30.09,29.99,13,4,15,0.00
2012-7-14,93.4,85.1,78.6,71.6,69.1,65.2,72,60,45,30.12,30.00,31,4,31,0.00
2012-7-15,91.0,82.5,75.9,73.0,68.2,65.2,72,62,47,30.11,30.00,14,4,14,0.00
2012-7-16,92.8,83.7,76.1,72.5,69.2,66.4,75,63,48,30.11,29.96,18,5,18,0.00
2012-7-17,95.7,87.6,79.7,72.6,69.8,67.5,72,57,42,30.08,29.96,17,5,17,0.00
2012-7-18,97.2,88.1,79.9,72.8,70.2,67.5,73,57,41,30.12,29.98,15,5,15,0.00
2012-7-19,96.8,87.0,82.6,70.0,68.7,66.8,65,55,39,30.18,30.03,13,4,13,0.00
2012-7-20,99.9,89.6,84.4,74.7,69.2,66.1,61,52,37,30.13,29.99,21,4,21,0.15
2012-7-21,102.4,91.0,81.5,72.1,68.7,66.4,63,49,33,30.05,29.90,17,3,20,0.00
2012-7-22,98.4,90.0,82.2,71.5,70.0,67.4,68,53,40,30.10,29.98,18,6,19,0.00
2012-7-23,97.0,89.4,82.2,71.7,68.7,66.3,66,51,39,30.17,30.07,20,6,22,0.00
2012-7-24,96.1,89.1,80.8,72.4,69.7,67.2,69,54,42,30.16,29.98,21,6,21,0.00
2012-7-25,97.7,90.2,82.2,72.5,70.2,67.4,69,53,40,30.04,29.89,21,6,21,0.00
2012-7-26,98.6,90.5,82.0,73.5,70.6,68.4,68,53,42,30.01,29.89,20,6,20,0.00
2012-7-27,96.4,89.8,82.9,72.8,69.7,65.0,66,52,38,30.11,29.99,14,5,17,0.00
2012-7-28,100.9,93.2,83.8,71.9,68.3,64.2,63,46,35,30.17,30.04,15,4,15,0.00
2012-7-29,102.4,93.4,84.2,67.9,65.0,62.8,52,40,29,30.15,29.99,17,4,18,0.00
2012-7-30,101.8,93.9,86.0,69.7,66.4,62.7,54,41,31,30.10,29.95,18,4,18,0.00
2012-7-31,102.0,92.8,83.7,71.3,67.1,62.7,57,44,31,30.07,29.93,14,4,15,0.00
2012-8-1,102.9,93.7,84.2,71.5,68.1,65.0,59,44,32,30.03,29.88,16,5,17,0.00
2012-8-2,102.7,93.0,84.2,68.8,66.0,63.4,52,42,31,29.96,29.84,18,6,20,0.00
2012-8-3,100.8,91.9,82.9,71.3,67.7,65.3,58,46,35,29.97,29.86,18,6,18,0.00
2012-8-4,99.3,91.4,83.1,70.8,68.9,66.8,64,49,38,30.07,29.92,18,6,22,0.00
2012-8-5,100.0,92.2,84.9,72.6,69.6,66.8,60,48,39,30.20,30.05,17,4,17,0.00
2012-8-6,100.2,92.1,85.8,72.2,69.6,67.4,57,48,39,30.17,29.99,15,4,15,0.00
2012-8-7,99.9,92.0,84.7,70.6,68.3,64.5,56,46,36,30.06,29.94,24,3,28,0.00
2012-8-8,91.0,87.6,82.2,73.5,69.4,66.9,70,55,46,30.12,29.95,19,4,19,0.00
2012-8-9,101.5,89.2,79.5,73.1,68.8,65.9,71,53,32,30.07,29.84,15,4,19,0.00
2012-8-10,96.1,90.0,83.1,68.6,64.7,58.3,57,44,32,30.01,29.88,16,4,16,0.00
2012-8-11,95.2,86.3,77.2,62.3,58.5,54.9,49,40,30,30.07,29.95,11,3,12,0.00
2012-8-12,100.0,89.5,79.5,70.8,66.4,61.3,60,47,38,30.05,29.89,22,5,22,0.00
2012-8-13,99.7,91.8,84.9,69.2,64.0,56.1,58,42,25,30.07,29.96,13,4,17,0.00
2012-8-14,100.9,89.9,80.1,72.6,64.6,57.3,74,44,30,30.04,29.84,18,5,18,0.18
2012-8-15,91.8,82.6,74.8,74.7,70.4,66.8,81,68,50,30.04,29.89,18,4,29,1.20
2012-8-16,88.2,84.5,81.1,71.2,68.7,67.0,69,59,51,30.11,29.97,12,4,19,0.00
2012-8-17,95.0,86.8,79.0,74.4,70.6,66.9,73,60,49,30.09,29.91,26,5,26,0.02
2012-8-18,85.6,77.6,72.3,70.7,66.2,63.6,78,68,58,30.06,29.87,43,6,43,2.27
2012-8-19,89.4,77.8,70.9,69.6,64.0,56.0,80,65,37,30.06,29.92,9,2,11,0.00
2012-8-20,88.9,82.2,73.9,66.3,61.5,56.6,71,51,37,30.08,29.97,14,3,14,0.00
2012-8-21,81.5,76.9,74.1,67.3,63.7,59.6,76,64,48,30.16,30.03,8,1,8,0.10
2012-8-22,75.6,75.4,75.4,63.8,63.6,63.6,67,67,67,30.14,30.14,0,0,0,0.10
2012-8-23,86.2,80.3,75.4,65.2,64.1,63.6,67,58,49,30.14,30.01,16,4,16,0.10
2012-8-24,91.6,84.5,77.5,71.8,68.4,64.0,71,59,46,30.04,29.88,13,5,13,0.00
2012-8-25,91.9,88.5,80.4,71.9,70.1,67.4,72,55,47,29.99,29.89,21,8,21,0.00
2012-8-26,85.8,82.3,79.3,73.9,71.0,68.7,75,69,62,30.13,29.99,13,3,18,0.00
2012-8-27,92.3,84.7,78.6,73.3,70.9,67.2,78,64,47,30.15,29.98,12,2,12,0.00
2012-8-28,92.3,86.0,79.5,74.0,70.1,61.0,73,60,45,30.07,29.91,19,4,19,0.00
2012-8-29,92.8,84.6,77.0,67.8,61.9,56.7,52,47,39,29.99,29.83,18,4,21,0.00
2012-8-30,94.3,86.9,79.5,67.7,64.6,59.1,56,48,41,29.88,29.76,24,4,24,0.00
2012-8-31,95.5,87.3,81.7,71.6,67.9,65.4,62,53,43,30.01,29.84,13,2,16,0.00
2012-9-1,96.4,89.3,82.2,72.9,70.4,67.2,69,55,44,30.12,29.99,17,6,17,0.00
2012-9-2,97.5,90.1,81.7,72.1,69.4,65.9,67,52,41,30.10,29.95,19,5,20,0.00
2012-9-3,98.2,90.0,82.2,72.3,68.0,64.3,63,49,39,30.06,29.93,16,4,16,0.00
2012-9-4,97.9,90.0,81.7,73.9,68.4,64.1,65,50,39,30.02,29.88,13,4,13,0.00
2012-9-5,98.8,90.3,82.0,71.8,67.2,61.9,62,48,38,29.99,29.86,13,4,13,0.00
2012-9-6,99.1,91.3,83.3,70.5,66.1,61.7,55,44,35,30.01,29.88,13,3,13,0.00
2012-9-7,99.9,91.5,83.1,69.9,66.2,62.7,57,44,36,29.97,29.82,19,4,24,0.00
2012-9-8,84.2,77.5,68.7,63.7,55.8,50.8,74,49,34,30.19,29.97,26,5,26,0.02
2012-9-9,86.2,77.9,68.5,53.5,51.7,49.7,53,41,30,30.24,30.11,12,1,12,0.00
2012-9-10,90.7,81.9,70.5,56.0,53.3,49.9,52,38,29,30.21,30.07,13,3,13,0.00
2012-9-11,90.0,81.7,73.8,59.4,55.4,52.0,52,41,31,30.19,30.05,18,5,18,0.00
2012-9-12,93.4,82.9,74.5,66.9,62.0,54.3,62,50,40,30.16,30.02,16,5,16,0.00
2012-9-13,84.7,81.1,77.2,71.7,67.5,64.5,73,64,53,30.22,30.08,21,4,21,0.00
2012-9-14,77.2,71.3,67.3,67.5,62.3,60.6,80,73,69,30.29,30.20,8,2,10,0.02
2012-9-15,76.8,70.2,66.4,63.3,60.1,58.0,79,71,60,30.28,30.16,10,2,11,0.00
2012-9-16,72.0,70.9,68.9,64.2,62.3,59.0,78,75,65,30.18,30.05,4,1,5,0.29
2012-9-17,80.1,74.0,70.3,66.7,64.4,62.3,80,72,62,30.06,29.87,9,2,9,0.02
2012-9-18,80.4,74.0,68.7,62.7,57.0,47.4,77,58,34,30.17,29.97,18,3,18,0.00
2012-9-19,84.4,74.9,65.5,55.9,51.9,48.0,63,46,35,30.23,30.09,11,3,12,0.00
2012-9-20,89.8,79.4,68.5,63.3,56.9,51.7,56,47,37,30.14,30.00,13,4,13,0.00
2012-9-21,90.7,80.8,72.1,61.9,57.1,54.0,55,45,33,30.09,29.97,12,3,12,0.00
2012-9-22,92.5,82.7,72.7,60.0,56.7,53.5,56,42,31,30.17,30.03,13,2,13,0.00
2012-9-23,91.9,83.4,74.1,63.7,59.8,56.2,59,46,36,30.25,30.13,10,2,11,0.00
2012-9-24,93.4,85.2,76.8,68.7,61.5,58.5,64,46,32,30.20,30.02,20,5,20,0.00
2012-9-25,91.9,84.1,77.0,67.6,63.4,58.3,69,51,35,30.09,29.94,29,8,29,0.00
2012-9-26,90.1,83.9,78.1,68.7,64.9,60.6,69,54,41,30.12,29.99,25,6,25,0.00
2012-9-27,89.1,83.5,78.8,68.7,65.8,62.9,68,56,45,30.17,30.06,13,4,13,0.00
2012-9-28,86.2,80.0,75.9,68.4,65.1,62.7,66,61,50,30.15,30.02,13,3,13,0.00
2012-9-29,77.9,73.2,68.7,66.9,65.3,63.0,84,76,64,30.07,29.89,22,5,22,2.14
2012-9-30,70.9,68.1,65.5,64.0,59.0,52.8,85,74,55,29.97,29.89,22,5,22,0.38
2012-10-1,80.8,72.3,61.5,59.1,54.2,51.0,81,55,37,29.94,29.86,12,3,12,0.00
2012-10-2,78.1,72.7,66.7,57.0,54.9,52.2,64,54,45,30.05,29.93,13,2,13,0.00
2012-10-3,82.2,75.5,67.3,59.2,55.2,52.9,62,50,39,30.10,30.01,18,4,18,0.00
2012-10-4,84.4,77.6,68.9,67.5,61.6,53.3,67,58,49,30.20,30.10,16,5,16,0.00
2012-10-5,83.5,77.0,62.8,68.8,64.0,49.1,75,64,53,30.18,30.05,24,5,24,0.00
2012-10-6,62.8,57.1,51.6,49.1,45.0,39.4,71,64,56,30.33,30.17,17,6,17,0.00
2012-10-7,55.6,53.4,51.6,39.8,37.9,35.8,62,56,49,30.39,30.27,16,4,16,0.00
2012-10-8,67.8,59.0,50.7,46.8,41.4,36.4,59,52,46,30.35,30.14,10,2,10,0.00
2012-10-9,76.1,66.2,58.3,62.6,53.7,43.5,68,64,53,30.15,29.94,21,5,21,0.00
2012-10-10,71.8,69.4,67.5,63.3,60.9,58.9,81,75,68,30.23,30.04,11,4,13,0.02
2012-10-11,81.7,74.3,68.7,71.7,66.1,59.3,82,76,69,30.23,30.12,21,4,21,0.00
2012-10-12,82.9,77.2,72.7,70.1,67.2,65.0,81,72,62,30.26,30.15,15,5,15,0.00
2012-10-13,80.4,77.1,73.8,69.9,67.7,64.9,78,73,67,30.15,29.91,23,8,23,0.00
2012-10-14,79.3,74.1,67.3,69.3,58.2,51.7,79,59,43,30.16,29.92,21,3,26,0.92
2012-10-15,80.2,73.3,64.0,55.3,52.7,49.2,65,49,41,30.20,30.04,8,2,8,0.00
2012-10-16,73.4,69.4,66.4,60.1,54.5,49.7,74,59,49,30.07,29.78,21,5,21,0.00
2012-10-17,84.2,74.9,68.2,67.6,58.4,47.4,78,59,39,29.88,29.63,22,7,23,0.00
2012-10-18,73.6,68.3,61.7,48.3,38.8,35.1,45,35,26,30.09,29.87,13,2,13,0.00
2012-10-19,75.0,67.6,57.9,41.4,38.1,32.3,47,35,25,30.12,29.97,11,2,11,0.00
2012-10-20,83.5,73.1,62.1,65.8,54.1,38.8,68,52,37,29.99,29.82,26,6,26,0.00
2012-10-21,86.2,80.7,75.7,70.8,68.2,65.8,75,66,56,29.98,29.86,27,8,27,0.00
2012-10-22,82.9,77.9,74.8,70.0,66.7,64.3,76,69,57,30.08,29.96,18,6,21,0.00
2012-10-23,82.6,77.1,72.3,69.6,66.3,64.0,77,70,62,30.06,29.96,20,6,20,0.00
2012-10-24,82.4,76.3,70.9,66.7,64.2,62.0,77,66,57,30.08,29.91,20,6,20,0.00
2012-10-25,77.7,69.9,56.7,68.2,59.6,42.5,77,70,59,30.16,29.89,20,5,20,0.17
2012-10-26,56.8,52.5,49.8,42.7,38.1,32.5,67,58,50,30.39,30.15,17,5,17,0.14
2012-10-27,58.8,50.9,43.3,36.8,33.3,30.4,62,51,39,30.42,30.23,15,3,15,0.00
2012-10-28,62.8,55.7,46.2,36.2,33.4,30.0,55,44,34,30.38,30.25,16,2,16,0.00
2012-10-29,66.9,58.5,49.6,40.4,36.5,32.5,53,44,35,30.38,30.20,11,1,43,0.00
2012-10-30,73.9,62.0,52.9,47.6,41.3,36.0,54,47,38,30.20,30.02,12,3,12,0.00
2012-10-31,78.6,68.8,59.7,53.1,48.8,44.6,66,49,39,30.10,30.02,12,2,12,0.00
2012-11-1,81.7,71.6,61.5,57.6,52.1,46.1,61,51,42,30.13,29.99,11,2,11,0.00
2012-11-2,84.0,75.6,66.4,60.1,54.5,50.0,63,49,37,30.08,29.97,22,4,24,0.00
2012-11-3,81.0,73.8,69.4,65.3,59.1,47.0,70,60,45,30.18,30.03,13,3,13,0.00
2012-11-4,73.8,67.2,60.8,53.4,47.5,41.4,58,49,44,30.22,30.11,9,2,9,0.00
2012-11-5,73.6,66.6,60.4,55.0,46.5,35.6,72,50,32,30.18,30.07,12,2,12,0.00
2012-11-6,70.2,62.2,54.1,46.4,42.0,37.2,54,48,41,30.25,30.12,11,1,11,0.00
2012-11-7,72.1,65.1,57.7,44.2,42.3,40.0,54,44,35,30.27,30.15,9,2,9,0.00
2012-11-8,78.1,68.9,59.4,58.4,50.3,39.5,66,52,41,30.21,30.04,21,6,21,0.00
2012-11-9,80.2,73.4,66.0,62.0,57.7,54.1,72,59,49,30.12,30.00,30,8,30,0.00
2012-11-10,78.4,73.4,67.6,61.2,58.3,54.7,69,60,52,30.09,29.92,24,9,24,0.00
2012-11-11,75.9,66.2,48.6,63.6,54.0,35.2,70,65,54,30.35,29.86,27,6,27,0.00
2012-11-12,58.3,50.4,41.7,35.2,29.3,25.1,60,45,32,30.58,30.35,13,3,13,0.00
2012-11-13,60.4,54.3,46.6,33.8,31.7,28.1,52,43,36,30.59,30.42,17,3,17,0.00
2012-11-14,62.8,57.0,50.9,36.9,34.1,31.3,50,42,36,30.52,30.35,7,2,7,0.00
2012-11-15,64.0,56.8,49.6,38.2,34.4,30.0,50,43,37,30.42,30.30,11,3,11,0.00
2012-11-16,64.0,56.7,48.7,38.7,36.1,33.3,56,47,38,30.50,30.39,12,2,12,0.00
2012-11-17,65.3,58.0,48.6,39.3,35.1,30.4,53,43,36,30.50,30.35,10,2,10,0.00
2012-11-18,67.6,59.9,52.3,42.8,37.9,33.2,51,44,39,30.39,30.26,17,4,17,0.00
2012-11-19,70.9,65.5,59.9,52.8,46.1,38.1,56,50,41,30.32,30.19,16,4,16,0.00
2012-11-20,76.1,68.2,60.4,58.2,52.0,47.0,64,56,49,30.28,30.18,12,1,12,0.00
2012-11-21,76.8,68.8,59.4,58.3,51.0,46.5,66,54,44,30.35,30.19,13,2,13,0.00
2012-11-22,74.1,68.0,61.3,53.0,49.1,43.9,57,51,43,30.22,30.09,24,5,24,0.00
2012-11-23,67.8,62.1,52.7,51.6,38.2,24.8,67,43,28,30.51,30.17,25,6,25,0.00
2012-11-24,61.2,54.1,46.8,32.3,28.1,23.0,42,37,33,30.51,30.18,12,3,12,0.00
2012-11-25,72.0,62.8,50.2,50.2,40.6,28.2,57,44,37,30.18,29.92,22,6,22,0.00
2012-11-26,73.6,64.3,50.2,58.0,49.6,34.1,73,60,39,30.33,29.95,17,5,17,0.00
2012-11-27,56.1,50.5,46.0,39.6,35.0,29.4,60,55,49,30.51,30.31,14,3,14,0.00
2012-11-28,64.6,57.0,47.5,44.3,39.4,34.2,62,52,45,30.51,30.33,15,4,15,0.00
2012-11-29,66.7,60.0,51.4,46.6,41.3,35.3,58,50,44,30.34,30.18,16,5,16,0.00
2012-11-30,70.9,65.4,59.9,58.5,54.0,46.5,73,67,58,30.23,30.10,16,6,16,0.00
2012-12-1,79.2,72.3,66.9,63.8,61.0,57.2,78,68,55,30.15,30.01,25,8,25,0.00
2012-12-2,80.2,73.6,70.7,64.1,61.3,57.7,73,66,53,30.21,30.07,24,7,24,0.00
2012-12-3,78.6,72.5,67.8,61.6,59.3,57.1,74,64,53,30.11,29.98,25,8,25,0.00
2012-12-4,71.2,66.3,57.9,57.2,46.3,30.8,70,50,31,30.33,30.06,15,5,15,0.00
2012-12-5,65.3,59.6,52.5,49.1,42.4,31.5,62,53,37,30.35,30.12,11,4,11,0.00
2012-12-6,68.7,62.0,57.4,53.5,49.7,44.6,73,64,55,30.12,29.89,18,5,18,0.00
2012-12-7,71.8,64.9,59.0,56.4,52.4,47.3,76,64,54,29.97,29.86,15,4,15,0.00
2012-12-8,68.9,63.4,56.8,58.2,51.7,46.8,75,66,59,30.01,29.86,11,3,11,0.00
2012-12-9,70.3,62.3,43.0,63.2,51.2,21.6,81,68,43,30.12,29.85,22,7,22,0.00
2012-12-10,43.2,40.6,36.7,23.7,20.3,15.0,48,44,41,30.22,30.11,19,6,19,0.00
2012-12-11,52.5,45.5,39.0,28.0,24.2,22.1,53,44,33,30.32,30.18,10,1,10,0.00
2012-12-12,57.9,49.3,40.3,32.5,26.9,20.9,48,42,37,30.41,30.27,15,4,16,0.00
2012-12-13,63.0,54.0,44.8,34.7,29.3,23.1,44,39,34,30.39,30.24,15,5,15,0.00
2012-12-14,61.5,58.5,54.5,53.4,41.1,29.8,77,53,38,30.27,29.93,22,7,22,0.47
2012-12-15,70.9,63.7,58.3,54.7,46.0,39.7,79,55,33,30.00,29.89,16,4,16,0.02
2012-12-16,70.7,63.8,59.2,44.2,42.2,39.3,56,46,34,29.92,29.77,16,3,16,0.00
2012-12-17,61.9,55.2,46.6,40.8,37.7,33.0,65,52,45,30.01,29.83,13,4,13,0.00
2012-12-18,75.0,62.0,50.2,44.7,38.9,33.7,54,44,29,29.94,29.83,18,4,22,0.00
2012-12-19,77.0,70.4,59.4,62.2,56.7,30.3,75,63,32,29.87,29.64,45,10,45,0.32
2012-12-20,58.8,46.5,40.5,31.7,20.0,13.6,53,36,24,30.49,29.87,34,10,45,0.02
2012-12-21,63.3,52.3,41.4,29.3,23.5,17.4,39,33,26,30.53,30.36,12,3,12,0.00
2012-12-22,65.3,56.1,45.3,44.3,32.8,20.9,54,42,33,30.38,30.10,24,6,24,0.00
2012-12-23,65.5,60.2,50.9,52.1,42.0,28.8,70,52,33,30.10,29.90,19,5,20,0.00
2012-12-24,56.5,48.7,37.4,34.8,29.5,23.0,58,48,43,30.12,29.87,13,4,13,0.00
2012-12-25,51.6,39.9,29.7,41.5,32.0,21.4,81,74,45,30.22,29.70,22,6,23,1.21
2012-12-26,38.3,30.5,23.5,25.6,20.1,14.1,72,65,59,30.37,30.21,21,6,21,0.06
2012-12-27,50.0,44.0,37.0,37.5,31.5,24.5,65,61,59,30.21,29.97,13,4,13,0.02
2012-12-28,48.7,40.0,33.6,37.7,31.6,22.3,80,72,63,30.31,29.96,20,7,20,0.02
2012-12-29,47.3,39.9,32.7,28.9,24.2,18.8,63,54,46,30.52,30.29,12,3,12,0.00
2012-12-30,52.2,46.2,39.7,31.6,28.0,24.3,56,49,42,30.54,30.29,15,5,15,0.00
2012-12-31,52.9,49.9,46.6,43.8,38.7,29.6,77,66,47,30.30,30.04,13,3,18,0.29
2013-1-1,50.0,43.4,38.1,42.2,35.1,28.9,78,73,67,30.37,30.11,15,5,15,0.00